Tripler AMC, HI (96859)

1:02 PM HST on June 26, 2017 (GMT -1000)
Hickam AFB Base Housing | | Change Station

Elev 43 ft 21.34 °N, 157.93 °W | Updated 4 minutes ago

Mostly Cloudy
Mostly Cloudy
89.4 °F
Feels Like 93 °F
N
4.6
Wind Variable Wind from South
Gusts 4.7 mph

Today
High -- | Low -- °F
--% Chance of Precip.
Yesterday
High -- | Low -- °F
Precip. -- in
Pressure 30.05 in
Visibility 10.0 miles
Clouds Few 2600 ft
Scattered Clouds 4200 ft
Mostly Cloudy 5000 ft
Heat Index 93 °F
Dew Point 71 °F
Humidity 49%
Rainfall 0.02 in
Snow Depth Not available.
5:51 AM 7:17 PM
Waxing Crescent, 11% visible
METAR PHNL 262253Z 06014G21KT 10SM FEW026 SCT042 BKN050 31/18 A3005 RMK AO2 SLP176 T03060183
Pressure 30.05 in
Visibility 10.0 miles
Clouds Few 2600 ft
Scattered Clouds 4200 ft
Mostly Cloudy 5000 ft
Heat Index 93 °F
Dew Point 71 °F
Humidity 49%
Rainfall 0.02 in
Snow Depth Not available.
5:51 AM 7:17 PM
Waxing Crescent, 11% visible
METAR PHNL 262253Z 06014G21KT 10SM FEW026 SCT042 BKN050 31/18 A3005 RMK AO2 SLP176 T03060183

Get Severe Weather Alerts

Thanks for signing up!

Be on the lookout for a verification email in your inbox.

You'll start receiving the daily forecast at 6 AM.

×

10-Day Weather Forecast

Almanac

Astronomy

Jun. 26, 2017 Rise Set
Actual Time
Civil Twilight
Nautical Twilight
Astronomical Twilight
Moon
Length of Visible Light
Length of Day
Tomorrow will be .
, % of the Moon is Illuminated

Today's Extremes

State Highs State Lows

Community

WunderPhotos

Category 6

Welcome to Category 6. This is the collective home for Weather Underground's featured writeups by Dr. Jeff Masters (right), Bob Henson (left), Chris Burt, and other regular contributors.

Nearby

Air Quality

  Air Quality AQ Index Pollutant
Not available.

Snow Depth

Station Depth Elevation

Earthquake Activity

City Distance Mag. Time & Date
Minimum magnitude displayed is 2.5.

Coastal Water Temperatures

Place Temperature

Stations

Nearby Weather Stations

Station Location Temp. Windchill Dew Point Humidity Wind Precip. Elev Updated Type
                   

Watches & Warnings

There are currently no watches in effect.